createdAt,value
2022-08-07T00:02:40.445Z,3.50
2022-08-07T00:05:28.273Z,3.53
2022-08-07T00:08:15.108Z,3.65
2022-08-07T00:11:00.736Z,3.10
2022-08-07T00:13:52.677Z,3.42
2022-08-07T00:16:40.498Z,3.30
2022-08-07T00:19:29.106Z,3.17
2022-08-07T00:22:35.638Z,3.33
2022-08-07T00:25:21.655Z,3.28
2022-08-07T00:28:10.780Z,3.25
2022-08-07T00:30:56.637Z,3.15
2022-08-07T00:33:42.765Z,3.85
2022-08-07T00:36:30.330Z,3.42
2022-08-07T00:39:17.352Z,4.13
2022-08-07T00:42:06.563Z,3.47
2022-08-07T00:44:54.868Z,4.00
2022-08-07T00:48:09.681Z,4.30
2022-08-07T00:50:51.226Z,3.42
2022-08-07T00:53:39.426Z,3.60
2022-08-07T00:56:37.370Z,3.67
2022-08-07T00:59:35.303Z,3.40
2022-08-07T01:02:28.410Z,3.67
2022-08-07T01:05:19.223Z,3.80
2022-08-07T01:08:06.167Z,3.25
2022-08-07T01:10:56.525Z,3.35
2022-08-07T01:13:55.551Z,3.20
2022-08-07T01:16:42.988Z,3.42
2022-08-07T01:19:32.451Z,3.25
2022-08-07T01:22:22.885Z,3.05
2022-08-07T01:25:54.667Z,2.70
2022-08-07T01:28:25.779Z,2.80
2022-08-07T01:31:17.788Z,2.70
2022-08-07T01:34:06.449Z,3.20
2022-08-07T01:36:58.265Z,3.17
2022-08-07T01:39:48.227Z,3.05
2022-08-07T01:42:57.245Z,3.97
2022-08-07T01:45:47.609Z,3.80
2022-08-07T01:48:46.585Z,3.65
2022-08-07T01:52:03.342Z,4.00
2022-08-07T01:54:49.075Z,4.53
2022-08-07T01:58:05.774Z,4.45
2022-08-07T02:00:49.265Z,4.20
2022-08-07T02:03:48.676Z,4.30
2022-08-07T02:06:40.547Z,3.53
2022-08-07T02:09:52.279Z,3.03
2022-08-07T02:12:39.742Z,3.97
2022-08-07T02:15:30.373Z,3.45
2022-08-07T02:18:20.412Z,3.60
2022-08-07T02:21:08.517Z,3.67
2022-08-07T02:24:04.667Z,3.33
2022-08-07T02:26:51.043Z,3.22
2022-08-07T02:29:48.808Z,3.13
2022-08-07T02:33:03.983Z,2.97
2022-08-07T02:36:28.870Z,3.33
2022-08-07T02:38:58.883Z,3.00
2022-08-07T02:41:54.492Z,3.28
2022-08-07T02:44:47.807Z,3.25
2022-08-07T02:50:42.577Z,2.78
2022-08-07T02:53:38.390Z,2.97
2022-08-07T02:56:31.662Z,3.13
2022-08-07T02:59:23.925Z,3.53
2022-08-07T03:02:15.938Z,3.50
2022-08-07T03:05:05.156Z,3.03
2022-08-07T03:08:07.730Z,3.05
2022-08-07T03:11:01.695Z,2.90
2022-08-07T03:13:57.638Z,3.00
2022-08-07T03:16:47.992Z,3.08
2022-08-07T03:19:36.788Z,3.38
2022-08-07T03:22:29.387Z,2.78
2022-08-07T03:25:15.321Z,3.03
2022-08-07T03:28:37.378Z,3.28
2022-08-07T03:31:24.633Z,2.85
2022-08-07T03:34:22.207Z,2.83
2022-08-07T03:37:18.505Z,2.80
2022-08-07T03:40:15.880Z,2.78
2022-08-07T03:43:03.805Z,2.95
2022-08-07T03:45:56.529Z,2.95
2022-08-07T03:48:45.390Z,3.10
2022-08-07T03:52:00.999Z,2.90
2022-08-07T03:54:54.888Z,2.65
2022-08-07T03:58:32.542Z,2.67
2022-08-07T04:00:59.646Z,2.75
2022-08-07T04:03:55.340Z,2.80
2022-08-07T04:06:44.268Z,2.75
2022-08-07T04:09:44.630Z,2.72
2022-08-07T04:12:35.295Z,2.88
2022-08-07T04:15:23.925Z,3.40
2022-08-07T04:18:56.976Z,3.03
2022-08-07T04:21:20.705Z,3.30
2022-08-07T04:24:30.701Z,3.28
2022-08-07T04:27:38.141Z,3.60
2022-08-07T04:30:43.691Z,3.45
2022-08-07T04:33:45.274Z,3.38
2022-08-07T04:36:32.068Z,3.90
2022-08-07T04:39:20.024Z,3.75
2022-08-07T04:42:12.680Z,3.65
2022-08-07T04:45:08.239Z,4.47
2022-08-07T04:48:10.169Z,4.05
2022-08-07T04:51:08.976Z,3.88
2022-08-07T04:54:13.889Z,4.30
2022-08-07T04:58:10.972Z,4.38
2022-08-07T05:01:18.511Z,4.78
2022-08-07T05:04:33.941Z,5.22
2022-08-07T05:07:37.210Z,4.93
2022-08-07T05:10:41.810Z,5.07
2022-08-07T05:14:51.887Z,5.00
2022-08-07T05:16:52.956Z,4.65
2022-08-07T05:19:46.318Z,4.95
2022-08-07T05:22:36.915Z,5.03
2022-08-07T05:25:25.737Z,5.28
2022-08-07T05:28:26.845Z,4.75
2022-08-07T05:31:17.506Z,5.28
2022-08-07T05:34:11.359Z,4.95
2022-08-07T05:37:00.567Z,4.45
2022-08-07T05:40:14.084Z,5.13
2022-08-07T05:43:04.351Z,4.78
2022-08-07T05:45:58.920Z,4.22
2022-08-07T05:48:58.334Z,4.55
2022-08-07T05:51:47.277Z,4.57
2022-08-07T05:54:53.462Z,4.40
2022-08-07T05:57:44.978Z,4.38
2022-08-07T06:00:37.071Z,4.53
2022-08-07T06:03:27.362Z,4.18
2022-08-07T06:06:34.420Z,4.47
2022-08-07T06:10:04.333Z,4.82
2022-08-07T06:12:33.049Z,5.18
2022-08-07T06:15:20.580Z,4.90
2022-08-07T06:18:07.921Z,4.10
2022-08-07T06:22:16.831Z,3.90
2022-08-07T06:24:48.172Z,4.07
2022-08-07T06:27:07.311Z,4.10
2022-08-07T06:29:54.456Z,4.65
2022-08-07T06:32:41.804Z,4.53
2022-08-07T06:35:30.550Z,4.50
2022-08-07T06:38:26.187Z,4.70
2022-08-07T06:42:02.510Z,4.30
2022-08-07T06:44:34.096Z,4.13
2022-08-07T06:47:23.284Z,3.83
2022-08-07T06:50:13.938Z,4.00
2022-08-07T06:53:04.252Z,3.75
2022-08-07T06:56:01.992Z,4.00
2022-08-07T07:00:12.820Z,3.42
2022-08-07T07:02:03.281Z,3.50
2022-08-07T07:04:55.109Z,4.18
2022-08-07T07:07:59.605Z,4.07
2022-08-07T07:10:56.720Z,4.32
2022-08-07T07:13:57.374Z,5.20
2022-08-07T07:16:50.722Z,5.10
2022-08-07T07:19:57.481Z,5.20
2022-08-07T07:24:09.092Z,5.43
2022-08-07T07:26:35.418Z,5.10
2022-08-07T07:29:40.315Z,4.53
2022-08-07T07:32:14.035Z,4.60
2022-08-07T07:35:02.555Z,4.63
2022-08-07T07:38:02.663Z,4.35
2022-08-07T07:40:52.319Z,4.90
2022-08-07T07:43:47.907Z,5.15
2022-08-07T07:46:57.152Z,4.85
2022-08-07T07:50:34.694Z,3.95
2022-08-07T07:52:57.738Z,3.90
2022-08-07T07:55:57.595Z,3.80
2022-08-07T07:58:47.290Z,4.35
2022-08-07T08:02:04.097Z,4.90
2022-08-07T08:04:50.597Z,5.10
2022-08-07T08:07:42.398Z,4.88
2022-08-07T08:10:45.987Z,4.57
2022-08-07T08:13:52.705Z,4.80
2022-08-07T08:16:42.585Z,4.38
2022-08-07T08:20:18.656Z,4.88
2022-08-07T08:23:04.812Z,4.72
2022-08-07T08:26:14.608Z,5.00
2022-08-07T08:29:02.513Z,4.40
2022-08-07T08:32:16.944Z,4.55
2022-08-07T08:34:58.493Z,3.70
2022-08-07T08:38:01.445Z,3.97
2022-08-07T08:40:57.861Z,3.58
2022-08-07T08:43:55.909Z,3.75
2022-08-07T08:46:54.851Z,3.97
2022-08-07T08:50:09.607Z,3.90
2022-08-07T08:52:57.006Z,4.25
2022-08-07T08:55:55.184Z,3.67
2022-08-07T08:59:02.382Z,3.80
2022-08-07T09:02:10.584Z,3.65
2022-08-07T09:05:17.291Z,3.40
2022-08-07T09:08:17.978Z,4.43
2022-08-07T09:12:30.268Z,3.70
2022-08-07T09:16:25.763Z,4.18
2022-08-07T09:18:22.484Z,3.80
2022-08-07T09:22:10.354Z,3.72
2022-08-07T09:25:14.669Z,4.55
2022-08-07T09:30:00.560Z,4.07
2022-08-07T09:31:51.309Z,5.07
2022-08-07T09:36:03.066Z,4.35
2022-08-07T09:38:43.791Z,4.45
2022-08-07T09:42:01.377Z,4.63
2022-08-07T09:47:50.718Z,4.03
2022-08-07T09:48:28.730Z,4.72
2022-08-07T09:52:15.934Z,5.00
2022-08-07T09:54:51.538Z,5.63
2022-08-07T09:58:13.180Z,5.40
2022-08-07T10:00:59.687Z,5.05
2022-08-07T10:04:17.376Z,6.10
2022-08-07T10:07:25.656Z,5.80
2022-08-07T10:11:59.959Z,5.80
2022-08-07T10:14:07.155Z,5.63
2022-08-07T10:17:16.833Z,5.57
2022-08-07T10:20:30.486Z,5.30
2022-08-07T10:24:06.927Z,5.63
2022-08-07T10:27:02.685Z,6.80
2022-08-07T10:30:04.858Z,8.10
2022-08-07T10:33:17.005Z,7.72
2022-08-07T10:36:53.234Z,6.40
2022-08-07T10:40:09.171Z,7.63
2022-08-07T10:43:29.741Z,8.07
2022-08-07T10:46:27.073Z,9.30
2022-08-07T10:49:49.956Z,8.70
2022-08-07T10:53:05.201Z,9.85
2022-08-07T10:56:19.700Z,8.88
2022-08-07T10:59:37.422Z,7.75
2022-08-07T11:02:49.452Z,8.65
2022-08-07T11:05:50.972Z,9.32
2022-08-07T11:08:54.677Z,9.20
2022-08-07T11:11:51.823Z,10.30
2022-08-07T11:14:57.329Z,9.98
2022-08-07T11:17:53.885Z,9.65
2022-08-07T11:21:14.144Z,8.98
2022-08-07T11:24:11.979Z,9.32
2022-08-07T11:27:07.147Z,9.90
2022-08-07T11:30:17.625Z,9.90
2022-08-07T11:33:54.267Z,9.80
2022-08-07T11:36:52.005Z,9.07
2022-08-07T11:40:10.644Z,8.80
2022-08-07T11:43:29.507Z,7.80
2022-08-07T11:46:38.008Z,5.57
2022-08-07T11:50:30.696Z,5.18
2022-08-07T11:54:01.655Z,4.35
2022-08-07T11:57:05.978Z,3.85
2022-08-07T12:00:18.948Z,3.88
2022-08-07T12:03:45.319Z,3.97
2022-08-07T12:06:57.292Z,4.47
2022-08-07T12:09:53.929Z,4.55
2022-08-07T12:12:55.148Z,4.70
2022-08-07T12:16:06.803Z,3.83
2022-08-07T12:19:14.686Z,4.38
2022-08-07T12:22:56.485Z,3.60
2022-08-07T12:26:05.700Z,3.75
2022-08-07T12:28:58.508Z,3.20
2022-08-07T12:32:01.701Z,3.33
2022-08-07T12:34:55.741Z,3.40
2022-08-07T12:38:11.307Z,3.65
2022-08-07T12:40:55.321Z,2.92
2022-08-07T12:44:02.485Z,3.55
2022-08-07T12:47:00.288Z,3.47
2022-08-07T12:50:39.428Z,3.17
2022-08-07T12:54:03.078Z,3.95
2022-08-07T12:56:51.218Z,3.25
2022-08-07T12:59:54.625Z,3.10
2022-08-07T13:03:07.036Z,3.42
2022-08-07T13:06:21.963Z,3.50
2022-08-07T13:10:20.717Z,3.20
2022-08-07T13:12:54.956Z,3.35
2022-08-07T13:15:59.066Z,2.97
2022-08-07T13:19:18.430Z,3.08
2022-08-07T13:22:26.906Z,2.75
2022-08-07T13:25:39.452Z,3.00
2022-08-07T13:28:44.048Z,2.75
2022-08-07T13:31:55.222Z,3.47
2022-08-07T13:34:56.795Z,2.85
2022-08-07T13:37:59.156Z,2.78
2022-08-07T13:41:06.561Z,2.95
2022-08-07T13:43:57.359Z,3.03
2022-08-07T13:46:49.560Z,3.20
2022-08-07T13:50:32.957Z,2.88
2022-08-07T13:52:47.067Z,2.88
2022-08-07T13:55:37.074Z,2.88
2022-08-07T13:58:56.112Z,3.08
2022-08-07T14:02:03.664Z,2.58
2022-08-07T14:04:55.106Z,3.20
2022-08-07T14:07:59.478Z,2.95
2022-08-07T14:11:15.017Z,2.95
2022-08-07T14:14:03.451Z,3.42
2022-08-07T14:16:50.625Z,2.90
2022-08-07T14:20:39.969Z,3.60
2022-08-07T14:23:01.690Z,2.70
2022-08-07T14:25:58.180Z,2.95
2022-08-07T14:28:57.461Z,3.15
2022-08-07T14:31:56.232Z,2.70
2022-08-07T14:34:47.056Z,2.70
2022-08-07T14:37:38.777Z,2.88
2022-08-07T14:43:58.940Z,2.50
2022-08-07T14:46:31.413Z,2.65
2022-08-07T14:49:57.114Z,2.50
2022-08-07T14:52:33.973Z,2.70
2022-08-07T14:55:21.643Z,2.20
2022-08-07T14:58:09.135Z,2.33
2022-08-07T15:04:19.052Z,2.45
2022-08-07T15:07:17.738Z,2.30
2022-08-07T15:10:11.218Z,2.35
2022-08-07T15:13:00.893Z,2.28
2022-08-07T15:15:52.574Z,2.30
2022-08-07T15:18:45.256Z,2.63
2022-08-07T15:21:44.086Z,2.15
2022-08-07T15:25:13.102Z,2.03
2022-08-07T15:28:02.026Z,2.10
2022-08-07T15:31:10.284Z,2.15
2022-08-07T15:34:00.751Z,2.07
2022-08-07T15:37:03.315Z,1.63
2022-08-07T15:40:02.390Z,2.10
2022-08-07T15:43:52.812Z,1.90
2022-08-07T15:46:37.224Z,1.90
2022-08-07T15:50:04.878Z,1.85
2022-08-07T15:52:38.469Z,1.60
2022-08-07T15:55:25.170Z,1.92
2022-08-07T15:58:52.223Z,1.75
2022-08-07T16:01:45.043Z,1.88
2022-08-07T16:04:48.451Z,1.83
2022-08-07T16:08:31.647Z,1.70
2022-08-07T16:10:56.462Z,1.70
2022-08-07T16:14:06.970Z,1.73
2022-08-07T16:18:02.337Z,1.70
2022-08-07T16:21:42.908Z,1.88
2022-08-07T16:24:34.886Z,1.35
2022-08-07T16:27:47.045Z,1.75
2022-08-07T16:31:57.448Z,1.67
2022-08-07T16:34:38.441Z,1.95
2022-08-07T16:38:07.109Z,1.65
2022-08-07T16:41:17.836Z,1.85
2022-08-07T16:44:40.438Z,1.95
2022-08-07T16:47:57.007Z,1.90
2022-08-07T16:51:20.589Z,2.25
2022-08-07T16:54:10.834Z,1.98
2022-08-07T16:57:03.987Z,1.90
2022-08-07T17:00:14.926Z,1.87
2022-08-07T17:03:57.710Z,1.90
2022-08-07T17:07:07.362Z,1.80
2022-08-07T17:10:07.791Z,1.90
2022-08-07T17:13:10.101Z,1.70
2022-08-07T17:16:12.241Z,1.70
2022-08-07T17:19:04.528Z,1.70
2022-08-07T17:22:03.098Z,1.55
2022-08-07T17:25:15.208Z,1.65
2022-08-07T17:28:12.381Z,1.85
2022-08-07T17:31:15.749Z,1.88
2022-08-07T17:34:35.478Z,1.70
2022-08-07T17:38:09.723Z,1.90
2022-08-07T17:42:01.721Z,1.83
2022-08-07T17:44:41.606Z,1.90
2022-08-07T17:47:54.337Z,1.90
2022-08-07T17:50:54.218Z,2.10
2022-08-07T17:54:29.787Z,2.25
2022-08-07T17:57:56.113Z,2.07
2022-08-07T18:00:48.727Z,2.40
2022-08-07T18:04:16.227Z,1.90
2022-08-07T18:07:19.301Z,2.00
2022-08-07T18:10:32.197Z,2.05
2022-08-07T18:13:41.119Z,1.90
2022-08-07T18:16:34.964Z,2.15
2022-08-07T18:21:06.439Z,2.00
2022-08-07T18:22:43.589Z,2.65
2022-08-07T18:25:40.532Z,2.30
2022-08-07T18:28:58.385Z,2.58
2022-08-07T18:31:50.363Z,2.10
2022-08-07T18:35:01.466Z,2.28
2022-08-07T18:38:57.602Z,2.88
2022-08-07T18:41:17.247Z,2.70
2022-08-07T18:44:29.332Z,3.78
2022-08-07T18:47:45.228Z,2.70
2022-08-07T18:50:46.923Z,2.50
2022-08-07T18:53:48.762Z,2.92
2022-08-07T18:56:57.866Z,2.50
2022-08-07T19:00:32.720Z,2.80
2022-08-07T19:03:49.502Z,2.47
2022-08-07T19:06:49.633Z,2.65
2022-08-07T19:10:03.834Z,2.33
2022-08-07T19:12:53.761Z,2.08
2022-08-07T19:16:03.251Z,2.30
2022-08-07T19:19:04.746Z,2.53
2022-08-07T19:22:11.213Z,2.40
2022-08-07T19:24:56.950Z,2.65
2022-08-07T19:28:29.663Z,3.00
2022-08-07T19:30:55.312Z,2.58
2022-08-07T19:33:56.419Z,2.30
2022-08-07T19:36:52.114Z,2.50
2022-08-07T19:39:57.759Z,2.63
2022-08-07T19:42:49.899Z,2.90
2022-08-07T19:46:09.313Z,2.50
2022-08-07T19:48:56.082Z,2.85
2022-08-07T19:51:51.808Z,2.72
2022-08-07T19:54:56.479Z,2.60
2022-08-07T19:58:02.039Z,2.65
2022-08-07T20:00:55.928Z,2.80
2022-08-07T20:03:42.546Z,3.10
2022-08-07T20:06:31.608Z,2.95
2022-08-07T20:09:46.405Z,2.95
2022-08-07T20:12:34.992Z,3.00
2022-08-07T20:15:33.135Z,2.92
2022-08-07T20:18:32.251Z,3.60
2022-08-07T20:21:21.813Z,2.92
2022-08-07T20:24:17.110Z,2.90
2022-08-07T20:27:09.158Z,2.70
2022-08-07T20:30:00.701Z,2.60
2022-08-07T20:32:47.772Z,2.65
2022-08-07T20:35:51.818Z,3.00
2022-08-07T20:38:59.438Z,2.70
2022-08-07T20:41:48.676Z,2.88
2022-08-07T20:44:39.777Z,2.90
2022-08-07T20:47:56.433Z,3.10
2022-08-07T20:50:40.682Z,2.85
2022-08-07T20:54:02.289Z,2.60
2022-08-07T20:56:46.145Z,3.10
2022-08-07T21:00:06.558Z,3.40
2022-08-07T21:03:13.862Z,2.97
2022-08-07T21:06:21.781Z,3.33
2022-08-07T21:09:17.406Z,3.20
2022-08-07T21:12:14.961Z,2.78
2022-08-07T21:15:06.882Z,2.95
2022-08-07T21:18:02.033Z,3.45
2022-08-07T21:21:04.256Z,3.20
2022-08-07T21:24:01.857Z,3.08
2022-08-07T21:27:06.963Z,2.65
2022-08-07T21:30:02.348Z,3.00
2022-08-07T21:33:11.953Z,3.15
2022-08-07T21:36:30.882Z,3.50
2022-08-07T21:39:48.078Z,3.22
2022-08-07T21:42:51.034Z,3.03
2022-08-07T21:46:09.984Z,2.97
2022-08-07T21:49:26.963Z,3.13
2022-08-07T21:52:36.235Z,3.55
2022-08-07T21:55:27.931Z,3.28
2022-08-07T21:58:30.167Z,3.60
2022-08-07T22:02:10.364Z,3.20
2022-08-07T22:04:51.114Z,3.03
2022-08-07T22:07:57.800Z,3.20
2022-08-07T22:10:49.600Z,3.63
2022-08-07T22:13:51.445Z,3.20
2022-08-07T22:16:49.309Z,4.03
2022-08-07T22:20:22.909Z,3.40
2022-08-07T22:23:35.834Z,3.40
2022-08-07T22:26:44.701Z,3.15
2022-08-07T22:29:56.306Z,3.45
2022-08-07T22:33:03.736Z,3.63
2022-08-07T22:36:12.195Z,3.25
2022-08-07T22:39:11.641Z,3.28
2022-08-07T22:42:19.900Z,3.40
2022-08-07T22:45:21.929Z,3.58
2022-08-07T22:48:55.411Z,3.20
2022-08-07T22:52:10.307Z,3.00
2022-08-07T22:58:35.209Z,3.22
2022-08-07T23:01:50.604Z,3.45
2022-08-07T23:06:07.065Z,2.97
2022-08-07T23:08:38.121Z,2.90
2022-08-07T23:11:47.857Z,3.00
2022-08-07T23:15:03.391Z,3.05
2022-08-07T23:17:49.463Z,3.30
2022-08-07T23:21:06.552Z,3.28
2022-08-07T23:24:16.964Z,3.40
2022-08-07T23:27:07.789Z,3.60
2022-08-07T23:34:36.244Z,2.85
2022-08-07T23:37:19.829Z,3.17
2022-08-07T23:40:33.862Z,3.33
2022-08-07T23:43:55.322Z,2.97
2022-08-07T23:50:33.598Z,3.17
2022-08-07T23:53:51.252Z,3.00
2022-08-07T23:56:38.077Z,2.72
